sensor_id;sensor_type;location;lat;lon;timestamp;P1;durP1;ratioP1;P2;durP2;ratioP2
25481;SDS011;13395;50.752;4.268;2023-04-01T00:00:29;7.10;;;2.33;;
25481;SDS011;13395;50.752;4.268;2023-04-01T00:02:55;12.00;;;2.30;;
25481;SDS011;13395;50.752;4.268;2023-04-01T00:05:21;12.02;;;2.13;;
25481;SDS011;13395;50.752;4.268;2023-04-01T00:07:47;11.65;;;1.85;;
25481;SDS011;13395;50.752;4.268;2023-04-01T00:10:12;13.18;;;2.05;;
25481;SDS011;13395;50.752;4.268;2023-04-01T00:12:38;7.50;;;1.63;;
25481;SDS011;13395;50.752;4.268;2023-04-01T00:15:05;12.10;;;1.77;;
25481;SDS011;13395;50.752;4.268;2023-04-01T00:17:32;6.13;;;1.30;;
25481;SDS011;13395;50.752;4.268;2023-04-01T00:19:58;8.95;;;1.92;;
25481;SDS011;13395;50.752;4.268;2023-04-01T00:22:24;10.60;;;1.90;;
25481;SDS011;13395;50.752;4.268;2023-04-01T00:24:51;14.40;;;2.88;;
25481;SDS011;13395;50.752;4.268;2023-04-01T00:27:17;5.28;;;1.52;;
25481;SDS011;13395;50.752;4.268;2023-04-01T00:29:43;8.18;;;1.25;;
25481;SDS011;13395;50.752;4.268;2023-04-01T00:32:15;4.80;;;1.48;;
25481;SDS011;13395;50.752;4.268;2023-04-01T00:34:41;4.20;;;1.30;;
25481;SDS011;13395;50.752;4.268;2023-04-01T00:37:07;5.72;;;1.60;;
25481;SDS011;13395;50.752;4.268;2023-04-01T00:39:33;6.25;;;1.60;;
25481;SDS011;13395;50.752;4.268;2023-04-01T00:42:00;10.00;;;1.65;;
25481;SDS011;13395;50.752;4.268;2023-04-01T00:44:27;6.85;;;1.38;;
25481;SDS011;13395;50.752;4.268;2023-04-01T00:46:55;11.68;;;1.95;;
25481;SDS011;13395;50.752;4.268;2023-04-01T00:49:22;7.30;;;1.92;;
25481;SDS011;13395;50.752;4.268;2023-04-01T00:51:52;6.95;;;1.63;;
25481;SDS011;13395;50.752;4.268;2023-04-01T00:54:20;7.35;;;1.63;;
25481;SDS011;13395;50.752;4.268;2023-04-01T00:56:54;11.55;;;1.98;;
25481;SDS011;13395;50.752;4.268;2023-04-01T00:59:35;6.80;;;1.90;;
25481;SDS011;13395;50.752;4.268;2023-04-01T01:02:07;10.32;;;2.60;;
25481;SDS011;13395;50.752;4.268;2023-04-01T01:04:36;8.98;;;2.05;;
25481;SDS011;13395;50.752;4.268;2023-04-01T01:12:53;5.88;;;2.00;;
25481;SDS011;13395;50.752;4.268;2023-04-01T01:15:26;6.07;;;2.00;;
25481;SDS011;13395;50.752;4.268;2023-04-01T01:18:19;7.38;;;2.13;;
25481;SDS011;13395;50.752;4.268;2023-04-01T01:23:46;5.85;;;1.88;;
25481;SDS011;13395;50.752;4.268;2023-04-01T01:32:16;7.72;;;2.15;;
25481;SDS011;13395;50.752;4.268;2023-04-01T01:37:21;6.70;;;1.88;;
25481;SDS011;13395;50.752;4.268;2023-04-01T01:39:54;4.80;;;1.92;;
25481;SDS011;13395;50.752;4.268;2023-04-01T01:42:23;3.85;;;1.65;;
25481;SDS011;13395;50.752;4.268;2023-04-01T01:44:52;2.83;;;1.80;;
25481;SDS011;13395;50.752;4.268;2023-04-01T01:47:20;2.83;;;1.70;;
25481;SDS011;13395;50.752;4.268;2023-04-01T01:49:48;3.92;;;1.35;;
25481;SDS011;13395;50.752;4.268;2023-04-01T01:52:16;3.53;;;1.42;;
25481;SDS011;13395;50.752;4.268;2023-04-01T01:54:52;3.10;;;1.73;;
25481;SDS011;13395;50.752;4.268;2023-04-01T01:57:21;7.32;;;2.22;;
25481;SDS011;13395;50.752;4.268;2023-04-01T01:59:50;6.72;;;1.50;;
25481;SDS011;13395;50.752;4.268;2023-04-01T02:02:22;7.00;;;1.88;;
25481;SDS011;13395;50.752;4.268;2023-04-01T02:04:49;4.18;;;2.13;;
25481;SDS011;13395;50.752;4.268;2023-04-01T02:07:18;7.65;;;2.60;;
25481;SDS011;13395;50.752;4.268;2023-04-01T02:09:48;9.20;;;2.38;;
25481;SDS011;13395;50.752;4.268;2023-04-01T02:12:15;7.75;;;3.25;;
25481;SDS011;13395;50.752;4.268;2023-04-01T02:14:47;7.35;;;3.55;;
25481;SDS011;13395;50.752;4.268;2023-04-01T02:17:15;11.57;;;3.58;;
25481;SDS011;13395;50.752;4.268;2023-04-01T02:20:02;9.50;;;4.65;;
25481;SDS011;13395;50.752;4.268;2023-04-01T02:22:36;15.82;;;5.45;;
25481;SDS011;13395;50.752;4.268;2023-04-01T02:25:11;7.63;;;4.25;;
25481;SDS011;13395;50.752;4.268;2023-04-01T02:27:40;8.38;;;3.60;;
25481;SDS011;13395;50.752;4.268;2023-04-01T02:30:08;13.98;;;4.40;;
25481;SDS011;13395;50.752;4.268;2023-04-01T02:32:34;10.77;;;4.10;;
25481;SDS011;13395;50.752;4.268;2023-04-01T02:35:04;5.85;;;3.58;;
25481;SDS011;13395;50.752;4.268;2023-04-01T02:37:35;7.93;;;4.28;;
25481;SDS011;13395;50.752;4.268;2023-04-01T02:40:04;15.30;;;4.80;;
25481;SDS011;13395;50.752;4.268;2023-04-01T02:42:34;10.40;;;4.13;;
25481;SDS011;13395;50.752;4.268;2023-04-01T02:45:00;10.82;;;4.47;;
25481;SDS011;13395;50.752;4.268;2023-04-01T02:47:27;14.10;;;3.72;;
25481;SDS011;13395;50.752;4.268;2023-04-01T02:49:53;14.88;;;3.70;;
25481;SDS011;13395;50.752;4.268;2023-04-01T02:52:23;12.02;;;4.28;;
25481;SDS011;13395;50.752;4.268;2023-04-01T02:54:49;8.98;;;4.60;;
25481;SDS011;13395;50.752;4.268;2023-04-01T02:57:15;13.45;;;5.43;;
25481;SDS011;13395;50.752;4.268;2023-04-01T02:59:40;14.32;;;6.60;;
25481;SDS011;13395;50.752;4.268;2023-04-01T03:02:06;12.27;;;7.32;;
25481;SDS011;13395;50.752;4.268;2023-04-01T03:04:32;18.42;;;8.05;;
25481;SDS011;13395;50.752;4.268;2023-04-01T03:06:58;14.07;;;7.45;;
25481;SDS011;13395;50.752;4.268;2023-04-01T03:09:23;20.17;;;8.88;;
25481;SDS011;13395;50.752;4.268;2023-04-01T03:11:49;26.00;;;8.27;;
25481;SDS011;13395;50.752;4.268;2023-04-01T03:14:14;19.13;;;7.78;;
25481;SDS011;13395;50.752;4.268;2023-04-01T03:16:40;16.60;;;7.03;;
25481;SDS011;13395;50.752;4.268;2023-04-01T03:19:06;24.42;;;8.13;;
25481;SDS011;13395;50.752;4.268;2023-04-01T03:21:31;16.08;;;7.97;;
25481;SDS011;13395;50.752;4.268;2023-04-01T03:23:57;23.80;;;8.88;;
25481;SDS011;13395;50.752;4.268;2023-04-01T03:26:23;16.73;;;7.57;;
25481;SDS011;13395;50.752;4.268;2023-04-01T03:28:49;14.75;;;7.20;;
25481;SDS011;13395;50.752;4.268;2023-04-01T03:31:15;13.48;;;6.72;;
25481;SDS011;13395;50.752;4.268;2023-04-01T03:33:41;10.98;;;5.82;;
25481;SDS011;13395;50.752;4.268;2023-04-01T03:36:07;15.55;;;6.93;;
25481;SDS011;13395;50.752;4.268;2023-04-01T03:38:33;18.30;;;6.93;;
25481;SDS011;13395;50.752;4.268;2023-04-01T03:41:00;21.80;;;7.13;;
25481;SDS011;13395;50.752;4.268;2023-04-01T03:43:25;15.50;;;6.95;;
25481;SDS011;13395;50.752;4.268;2023-04-01T03:45:51;17.73;;;7.53;;
25481;SDS011;13395;50.752;4.268;2023-04-01T03:48:17;13.18;;;7.20;;
25481;SDS011;13395;50.752;4.268;2023-04-01T03:50:43;15.65;;;8.38;;
25481;SDS011;13395;50.752;4.268;2023-04-01T03:53:09;23.80;;;9.10;;
25481;SDS011;13395;50.752;4.268;2023-04-01T03:55:35;21.08;;;8.73;;
25481;SDS011;13395;50.752;4.268;2023-04-01T03:58:02;16.20;;;8.50;;
25481;SDS011;13395;50.752;4.268;2023-04-01T04:00:28;23.58;;;8.88;;
25481;SDS011;13395;50.752;4.268;2023-04-01T04:02:55;19.65;;;10.00;;
25481;SDS011;13395;50.752;4.268;2023-04-01T04:05:21;22.20;;;9.00;;
25481;SDS011;13395;50.752;4.268;2023-04-01T04:07:48;19.95;;;8.88;;
25481;SDS011;13395;50.752;4.268;2023-04-01T04:10:13;18.33;;;8.85;;
25481;SDS011;13395;50.752;4.268;2023-04-01T04:12:39;19.42;;;9.02;;
25481;SDS011;13395;50.752;4.268;2023-04-01T04:15:05;13.73;;;8.68;;
25481;SDS011;13395;50.752;4.268;2023-04-01T04:17:32;26.50;;;9.35;;
25481;SDS011;13395;50.752;4.268;2023-04-01T04:19:57;16.75;;;8.55;;
25481;SDS011;13395;50.752;4.268;2023-04-01T04:22:23;18.58;;;9.05;;
25481;SDS011;13395;50.752;4.268;2023-04-01T04:24:49;16.33;;;8.50;;
25481;SDS011;13395;50.752;4.268;2023-04-01T04:27:14;20.27;;;8.85;;
25481;SDS011;13395;50.752;4.268;2023-04-01T04:29:40;19.27;;;9.52;;
25481;SDS011;13395;50.752;4.268;2023-04-01T04:32:06;16.70;;;8.45;;
25481;SDS011;13395;50.752;4.268;2023-04-01T04:34:32;16.85;;;8.55;;
25481;SDS011;13395;50.752;4.268;2023-04-01T04:36:58;22.23;;;8.77;;
25481;SDS011;13395;50.752;4.268;2023-04-01T04:39:23;16.95;;;8.48;;
25481;SDS011;13395;50.752;4.268;2023-04-01T04:41:49;17.83;;;8.15;;
25481;SDS011;13395;50.752;4.268;2023-04-01T04:44:15;15.27;;;7.88;;
25481;SDS011;13395;50.752;4.268;2023-04-01T04:46:40;13.02;;;7.10;;
25481;SDS011;13395;50.752;4.268;2023-04-01T04:49:06;17.73;;;7.50;;
25481;SDS011;13395;50.752;4.268;2023-04-01T04:51:32;17.95;;;7.63;;
25481;SDS011;13395;50.752;4.268;2023-04-01T04:54:01;16.38;;;7.00;;
25481;SDS011;13395;50.752;4.268;2023-04-01T04:56:27;12.90;;;6.93;;
25481;SDS011;13395;50.752;4.268;2023-04-01T04:58:53;18.45;;;7.43;;
25481;SDS011;13395;50.752;4.268;2023-04-01T05:01:19;13.43;;;7.30;;
25481;SDS011;13395;50.752;4.268;2023-04-01T05:03:45;12.55;;;6.20;;
25481;SDS011;13395;50.752;4.268;2023-04-01T05:06:11;12.75;;;6.65;;
25481;SDS011;13395;50.752;4.268;2023-04-01T05:08:39;9.10;;;6.43;;
25481;SDS011;13395;50.752;4.268;2023-04-01T05:11:07;10.00;;;5.53;;
25481;SDS011;13395;50.752;4.268;2023-04-01T05:13:35;9.23;;;5.95;;
25481;SDS011;13395;50.752;4.268;2023-04-01T05:16:01;13.93;;;5.75;;
25481;SDS011;13395;50.752;4.268;2023-04-01T05:18:27;10.52;;;5.85;;
25481;SDS011;13395;50.752;4.268;2023-04-01T05:20:53;12.40;;;5.93;;
25481;SDS011;13395;50.752;4.268;2023-04-01T05:23:20;13.95;;;6.88;;
25481;SDS011;13395;50.752;4.268;2023-04-01T05:25:47;8.75;;;5.97;;
25481;SDS011;13395;50.752;4.268;2023-04-01T05:28:13;13.23;;;6.40;;
25481;SDS011;13395;50.752;4.268;2023-04-01T05:30:42;11.52;;;6.20;;
25481;SDS011;13395;50.752;4.268;2023-04-01T05:33:09;9.30;;;5.57;;
25481;SDS011;13395;50.752;4.268;2023-04-01T05:35:35;9.25;;;4.90;;
25481;SDS011;13395;50.752;4.268;2023-04-01T05:38:02;12.88;;;5.15;;
25481;SDS011;13395;50.752;4.268;2023-04-01T05:40:28;11.52;;;6.07;;
25481;SDS011;13395;50.752;4.268;2023-04-01T05:42:54;12.13;;;5.38;;
25481;SDS011;13395;50.752;4.268;2023-04-01T05:45:20;12.93;;;5.65;;
25481;SDS011;13395;50.752;4.268;2023-04-01T05:47:46;14.68;;;5.75;;
25481;SDS011;13395;50.752;4.268;2023-04-01T05:50:11;9.93;;;5.45;;
25481;SDS011;13395;50.752;4.268;2023-04-01T05:52:37;13.93;;;6.07;;
25481;SDS011;13395;50.752;4.268;2023-04-01T05:55:03;14.38;;;7.97;;
25481;SDS011;13395;50.752;4.268;2023-04-01T05:57:29;19.58;;;8.43;;
25481;SDS011;13395;50.752;4.268;2023-04-01T05:59:55;16.20;;;8.10;;
25481;SDS011;13395;50.752;4.268;2023-04-01T06:02:21;19.60;;;9.13;;
25481;SDS011;13395;50.752;4.268;2023-04-01T06:04:47;13.10;;;8.20;;
25481;SDS011;13395;50.752;4.268;2023-04-01T06:07:17;23.08;;;9.00;;
25481;SDS011;13395;50.752;4.268;2023-04-01T06:09:43;20.67;;;9.05;;
25481;SDS011;13395;50.752;4.268;2023-04-01T06:33:56;18.88;;;7.80;;
25481;SDS011;13395;50.752;4.268;2023-04-01T06:42:31;12.73;;;6.65;;
25481;SDS011;13395;50.752;4.268;2023-04-01T06:45:10;23.30;;;8.55;;
25481;SDS011;13395;50.752;4.268;2023-04-01T06:50:48;16.08;;;6.75;;
25481;SDS011;13395;50.752;4.268;2023-04-01T06:56:27;15.50;;;7.82;;
25481;SDS011;13395;50.752;4.268;2023-04-01T06:59:10;10.13;;;6.28;;
25481;SDS011;13395;50.752;4.268;2023-04-01T07:01:50;16.05;;;5.22;;
25481;SDS011;13395;50.752;4.268;2023-04-01T07:04:20;12.52;;;5.22;;
25481;SDS011;13395;50.752;4.268;2023-04-01T07:06:55;15.48;;;5.55;;
25481;SDS011;13395;50.752;4.268;2023-04-01T07:09:41;7.57;;;4.80;;
25481;SDS011;13395;50.752;4.268;2023-04-01T07:12:20;12.82;;;4.93;;
25481;SDS011;13395;50.752;4.268;2023-04-01T07:14:55;12.40;;;6.25;;
25481;SDS011;13395;50.752;4.268;2023-04-01T07:17:23;11.05;;;6.10;;
25481;SDS011;13395;50.752;4.268;2023-04-01T07:19:56;12.02;;;6.28;;
25481;SDS011;13395;50.752;4.268;2023-04-01T07:22:45;8.25;;;5.93;;
25481;SDS011;13395;50.752;4.268;2023-04-01T07:25:16;8.63;;;5.82;;
25481;SDS011;13395;50.752;4.268;2023-04-01T07:27:45;11.82;;;6.53;;
25481;SDS011;13395;50.752;4.268;2023-04-01T07:30:15;12.40;;;5.70;;
25481;SDS011;13395;50.752;4.268;2023-04-01T07:38:05;7.13;;;3.25;;
25481;SDS011;13395;50.752;4.268;2023-04-01T07:43:44;8.05;;;3.10;;
25481;SDS011;13395;50.752;4.268;2023-04-01T07:52:08;4.47;;;2.97;;
25481;SDS011;13395;50.752;4.268;2023-04-01T08:00:12;6.13;;;3.67;;
25481;SDS011;13395;50.752;4.268;2023-04-01T08:08:46;5.15;;;3.47;;
25481;SDS011;13395;50.752;4.268;2023-04-01T08:11:17;5.25;;;3.65;;
25481;SDS011;13395;50.752;4.268;2023-04-01T08:14:32;4.60;;;3.40;;
25481;SDS011;13395;50.752;4.268;2023-04-01T08:17:05;3.40;;;2.13;;
25481;SDS011;13395;50.752;4.268;2023-04-01T08:20:11;3.03;;;2.00;;
25481;SDS011;13395;50.752;4.268;2023-04-01T08:22:49;4.30;;;1.90;;
25481;SDS011;13395;50.752;4.268;2023-04-01T08:25:22;5.28;;;2.17;;
25481;SDS011;13395;50.752;4.268;2023-04-01T08:27:53;3.63;;;1.65;;
25481;SDS011;13395;50.752;4.268;2023-04-01T08:30:29;1.77;;;1.55;;
25481;SDS011;13395;50.752;4.268;2023-04-01T08:35:48;2.50;;;1.40;;
25481;SDS011;13395;50.752;4.268;2023-04-01T08:38:23;3.33;;;1.60;;
25481;SDS011;13395;50.752;4.268;2023-04-01T08:44:04;3.08;;;2.00;;
25481;SDS011;13395;50.752;4.268;2023-04-01T08:49:38;3.25;;;1.20;;
25481;SDS011;13395;50.752;4.268;2023-04-01T08:52:20;1.88;;;1.15;;
25481;SDS011;13395;50.752;4.268;2023-04-01T08:58:00;1.80;;;0.90;;
25481;SDS011;13395;50.752;4.268;2023-04-01T09:11:59;3.45;;;1.60;;
25481;SDS011;13395;50.752;4.268;2023-04-01T09:36:11;1.98;;;1.30;;
25481;SDS011;13395;50.752;4.268;2023-04-01T09:38:57;2.95;;;1.00;;
25481;SDS011;13395;50.752;4.268;2023-04-01T09:41:32;2.58;;;1.40;;
25481;SDS011;13395;50.752;4.268;2023-04-01T09:52:27;2.30;;;1.63;;
25481;SDS011;13395;50.752;4.268;2023-04-01T09:58:05;2.83;;;1.73;;
25481;SDS011;13395;50.752;4.268;2023-04-01T10:53:49;3.30;;;2.08;;
25481;SDS011;13395;50.752;4.268;2023-04-01T10:58:55;3.08;;;2.17;;
25481;SDS011;13395;50.752;4.268;2023-04-01T11:20:03;5.65;;;1.50;;
25481;SDS011;13395;50.752;4.268;2023-04-01T11:25:46;3.42;;;1.90;;
25481;SDS011;13395;50.752;4.268;2023-04-01T11:39:42;1.00;;;0.82;;
25481;SDS011;13395;50.752;4.268;2023-04-01T11:42:51;1.25;;;1.02;;
25481;SDS011;13395;50.752;4.268;2023-04-01T11:56:24;1.58;;;0.60;;
25481;SDS011;13395;50.752;4.268;2023-04-01T11:59:06;1.67;;;0.77;;
25481;SDS011;13395;50.752;4.268;2023-04-01T12:04:54;2.55;;;0.73;;
25481;SDS011;13395;50.752;4.268;2023-04-01T12:18:52;1.67;;;0.90;;
25481;SDS011;13395;50.752;4.268;2023-04-01T12:21:42;1.77;;;1.00;;
25481;SDS011;13395;50.752;4.268;2023-04-01T12:24:32;6.60;;;3.00;;
25481;SDS011;13395;50.752;4.268;2023-04-01T12:27:27;3.90;;;2.22;;
25481;SDS011;13395;50.752;4.268;2023-04-01T12:46:16;10.68;;;2.58;;
25481;SDS011;13395;50.752;4.268;2023-04-01T13:01:59;7.15;;;2.30;;
25481;SDS011;13395;50.752;4.268;2023-04-01T13:21:48;8.18;;;2.40;;
25481;SDS011;13395;50.752;4.268;2023-04-01T14:02:56;4.25;;;2.45;;
25481;SDS011;13395;50.752;4.268;2023-04-01T14:08:39;3.10;;;1.70;;
25481;SDS011;13395;50.752;4.268;2023-04-01T14:26:16;1.60;;;1.10;;
25481;SDS011;13395;50.752;4.268;2023-04-01T14:34:33;3.38;;;1.05;;
25481;SDS011;13395;50.752;4.268;2023-04-01T14:48:56;1.15;;;0.90;;
25481;SDS011;13395;50.752;4.268;2023-04-01T14:51:29;2.20;;;0.90;;
25481;SDS011;13395;50.752;4.268;2023-04-01T14:56:48;2.05;;;1.20;;
25481;SDS011;13395;50.752;4.268;2023-04-01T15:01:55;2.15;;;1.00;;
25481;SDS011;13395;50.752;4.268;2023-04-01T15:13:11;2.80;;;0.80;;
25481;SDS011;13395;50.752;4.268;2023-04-01T15:24:06;4.50;;;1.15;;
25481;SDS011;13395;50.752;4.268;2023-04-01T15:33:18;1.48;;;0.85;;
25481;SDS011;13395;50.752;4.268;2023-04-01T15:41:38;2.05;;;0.80;;
25481;SDS011;13395;50.752;4.268;2023-04-01T15:55:20;4.00;;;2.00;;
25481;SDS011;13395;50.752;4.268;2023-04-01T16:06:45;2.30;;;1.40;;
25481;SDS011;13395;50.752;4.268;2023-04-01T16:12:24;3.50;;;2.10;;
25481;SDS011;13395;50.752;4.268;2023-04-01T16:17:40;2.83;;;1.20;;
25481;SDS011;13395;50.752;4.268;2023-04-01T16:20:19;2.33;;;0.95;;
25481;SDS011;13395;50.752;4.268;2023-04-01T16:23:10;2.15;;;1.50;;
25481;SDS011;13395;50.752;4.268;2023-04-01T16:25:52;2.40;;;1.38;;
25481;SDS011;13395;50.752;4.268;2023-04-01T16:28:54;1.83;;;1.23;;
25481;SDS011;13395;50.752;4.268;2023-04-01T16:31:50;1.95;;;1.30;;
25481;SDS011;13395;50.752;4.268;2023-04-01T16:37:19;2.53;;;1.10;;
25481;SDS011;13395;50.752;4.268;2023-04-01T16:42:56;1.95;;;1.10;;
25481;SDS011;13395;50.752;4.268;2023-04-01T16:45:55;3.22;;;1.60;;
25481;SDS011;13395;50.752;4.268;2023-04-01T16:48:34;4.13;;;1.60;;
25481;SDS011;13395;50.752;4.268;2023-04-01T16:51:17;4.03;;;1.10;;
25481;SDS011;13395;50.752;4.268;2023-04-01T16:54:05;3.83;;;0.90;;
25481;SDS011;13395;50.752;4.268;2023-04-01T16:56:52;1.20;;;0.75;;
25481;SDS011;13395;50.752;4.268;2023-04-01T16:59:39;1.70;;;1.10;;
25481;SDS011;13395;50.752;4.268;2023-04-01T17:02:16;1.10;;;0.80;;
25481;SDS011;13395;50.752;4.268;2023-04-01T17:10:45;1.00;;;0.82;;
25481;SDS011;13395;50.752;4.268;2023-04-01T17:13:46;2.60;;;1.10;;
25481;SDS011;13395;50.752;4.268;2023-04-01T17:16:23;2.83;;;1.20;;
25481;SDS011;13395;50.752;4.268;2023-04-01T17:22:39;7.93;;;1.30;;
25481;SDS011;13395;50.752;4.268;2023-04-01T17:27:45;2.88;;;1.17;;
25481;SDS011;13395;50.752;4.268;2023-04-01T17:30:31;2.33;;;1.48;;
25481;SDS011;13395;50.752;4.268;2023-04-01T17:35:58;3.50;;;1.33;;
25481;SDS011;13395;50.752;4.268;2023-04-01T17:44:24;2.22;;;1.30;;
25481;SDS011;13395;50.752;4.268;2023-04-01T17:50:15;3.10;;;1.60;;
25481;SDS011;13395;50.752;4.268;2023-04-01T17:52:48;4.28;;;1.50;;
25481;SDS011;13395;50.752;4.268;2023-04-01T17:58:22;3.40;;;1.30;;
25481;SDS011;13395;50.752;4.268;2023-04-01T18:09:15;4.27;;;2.03;;
25481;SDS011;13395;50.752;4.268;2023-04-01T18:25:37;8.10;;;5.32;;
25481;SDS011;13395;50.752;4.268;2023-04-01T18:30:57;6.95;;;3.03;;
25481;SDS011;13395;50.752;4.268;2023-04-01T18:41:48;4.30;;;2.83;;
25481;SDS011;13395;50.752;4.268;2023-04-01T18:55:49;3.47;;;2.95;;
25481;SDS011;13395;50.752;4.268;2023-04-01T18:58:25;3.72;;;3.17;;
25481;SDS011;13395;50.752;4.268;2023-04-01T19:04:00;4.68;;;4.03;;
25481;SDS011;13395;50.752;4.268;2023-04-01T19:06:41;4.07;;;3.60;;
25481;SDS011;13395;50.752;4.268;2023-04-01T19:09:32;4.72;;;3.22;;
25481;SDS011;13395;50.752;4.268;2023-04-01T19:17:54;6.43;;;2.78;;
25481;SDS011;13395;50.752;4.268;2023-04-01T19:20:37;7.45;;;3.75;;
25481;SDS011;13395;50.752;4.268;2023-04-01T19:29:44;10.32;;;5.45;;
25481;SDS011;13395;50.752;4.268;2023-04-01T19:43:02;15.27;;;8.98;;
25481;SDS011;13395;50.752;4.268;2023-04-01T19:50:47;20.70;;;13.23;;
25481;SDS011;13395;50.752;4.268;2023-04-01T19:56:21;25.65;;;14.95;;
25481;SDS011;13395;50.752;4.268;2023-04-01T20:01:38;28.98;;;14.80;;
25481;SDS011;13395;50.752;4.268;2023-04-01T20:04:17;28.02;;;14.20;;
25481;SDS011;13395;50.752;4.268;2023-04-01T20:06:55;23.33;;;12.70;;
25481;SDS011;13395;50.752;4.268;2023-04-01T20:09:49;22.85;;;14.27;;
25481;SDS011;13395;50.752;4.268;2023-04-01T20:12:38;25.50;;;14.38;;
25481;SDS011;13395;50.752;4.268;2023-04-01T20:17:59;25.73;;;14.63;;
25481;SDS011;13395;50.752;4.268;2023-04-01T20:20:28;33.53;;;16.65;;
25481;SDS011;13395;50.752;4.268;2023-04-01T20:28:44;41.70;;;19.30;;
25481;SDS011;13395;50.752;4.268;2023-04-01T20:31:41;37.00;;;19.00;;
25481;SDS011;13395;50.752;4.268;2023-04-01T20:53:43;30.02;;;16.70;;
25481;SDS011;13395;50.752;4.268;2023-04-01T21:02:12;27.98;;;15.40;;
25481;SDS011;13395;50.752;4.268;2023-04-01T21:07:41;30.23;;;15.20;;
25481;SDS011;13395;50.752;4.268;2023-04-01T21:10:33;28.42;;;14.70;;
25481;SDS011;13395;50.752;4.268;2023-04-01T21:15:47;41.30;;;19.23;;
25481;SDS011;13395;50.752;4.268;2023-04-01T21:37:41;52.45;;;22.98;;
25481;SDS011;13395;50.752;4.268;2023-04-01T22:00:14;46.13;;;22.10;;
25481;SDS011;13395;50.752;4.268;2023-04-01T22:30:18;31.67;;;17.08;;
25481;SDS011;13395;50.752;4.268;2023-04-01T22:34:00;31.15;;;16.25;;
25481;SDS011;13395;50.752;4.268;2023-04-01T22:36:06;27.13;;;15.98;;
25481;SDS011;13395;50.752;4.268;2023-04-01T22:44:05;22.90;;;15.75;;
25481;SDS011;13395;50.752;4.268;2023-04-01T22:46:47;30.30;;;15.50;;
25481;SDS011;13395;50.752;4.268;2023-04-01T22:50:04;23.15;;;13.68;;
25481;SDS011;13395;50.752;4.268;2023-04-01T22:52:40;31.63;;;15.07;;
25481;SDS011;13395;50.752;4.268;2023-04-01T22:55:03;25.52;;;15.48;;
25481;SDS011;13395;50.752;4.268;2023-04-01T22:57:37;21.23;;;14.10;;
25481;SDS011;13395;50.752;4.268;2023-04-01T23:03:21;24.67;;;14.48;;
25481;SDS011;13395;50.752;4.268;2023-04-01T23:05:53;24.35;;;14.93;;
25481;SDS011;13395;50.752;4.268;2023-04-01T23:16:46;22.40;;;13.75;;
25481;SDS011;13395;50.752;4.268;2023-04-01T23:19:41;24.20;;;13.50;;
25481;SDS011;13395;50.752;4.268;2023-04-01T23:24:42;19.40;;;12.80;;
25481;SDS011;13395;50.752;4.268;2023-04-01T23:30:52;19.23;;;13.13;;
25481;SDS011;13395;50.752;4.268;2023-04-01T23:33:26;22.33;;;14.52;;
25481;SDS011;13395;50.752;4.268;2023-04-01T23:35:58;25.27;;;17.77;;
25481;SDS011;13395;50.752;4.268;2023-04-01T23:38:37;31.45;;;19.83;;
25481;SDS011;13395;50.752;4.268;2023-04-01T23:41:06;33.80;;;21.35;;
25481;SDS011;13395;50.752;4.268;2023-04-01T23:43:41;34.10;;;20.85;;
25481;SDS011;13395;50.752;4.268;2023-04-01T23:46:08;33.33;;;20.20;;
25481;SDS011;13395;50.752;4.268;2023-04-01T23:48:38;34.45;;;21.00;;
25481;SDS011;13395;50.752;4.268;2023-04-01T23:53:57;34.47;;;21.60;;
25481;SDS011;13395;50.752;4.268;2023-04-01T23:56:44;38.10;;;21.25;;
25481;SDS011;13395;50.752;4.268;2023-04-01T23:59:17;33.85;;;20.40;;
